Morristown, South Dakota
Current Conditions -  °F | °C
As of 7:53 PM on Friday 21 Nov 2014 (Local Time) from KHEI Reporting Station
Clear Clear  
Wind Chill: 30°   Ceiling: Unl
Heat Index: 34°   Visibility: 10mi
Dew Point: 27°   Wind: 5mph
Humidity: 75%   Direction: 290°WNW
Pressure: 29.76"   Gusts: NA
Location:  45.94°N, 101.72°W
Report Text: KHEI 220253Z AUTO 29004KT 10SM CLR 01/M03 A2976 RMK AO2 SLP102 T00111028 58002
Loading
Personal Weather Stations






























Interactive Weather Map New forecast layout! Learn more

10-Day Weather Forecast

Advertisements
Track Severe Weather on mobile